Time;durP1;ratioP1;P1;durP2;ratioP2;P2;SDS_P1;SDS_P2;PMS_P1;PMS_P2;Temp;Humidity;BMP_temperature;BMP_pressure;BME280_temperature;BME280_humidity;BME280_pressure;Samples;Min_cycle;Max_cycle;Signal;HPM_P1;HPM_P2
2020/12/02 00:00:30;;;;;;;21.15;12.43;;;;;;;1.26;93.67;100870.68;1737322;81;21191;-65
2020/12/02 00:03:27;;;;;;;17.73;12.75;;;;;;;1.26;93.39;100871.52;1738396;81;21200;-64
2020/12/02 00:05:56;;;;;;;18.03;11.57;;;;;;;1.27;93.35;100872.34;1756236;81;21629;-65
2020/12/02 00:08:37;;;;;;;19.40;13.00;;;;;;;1.30;93.27;100872.84;1754192;81;22099;-65
2020/12/02 00:11:09;;;;;;;17.30;12.23;;;;;;;1.33;93.08;100878.83;1739762;81;21217;-64
2020/12/02 00:13:42;;;;;;;21.95;12.70;;;;;;;1.31;92.94;100881.14;1756361;81;21038;-64
2020/12/02 00:16:13;;;;;;;19.65;12.50;;;;;;;1.31;92.83;100878.98;1758151;80;21199;-66
2020/12/02 00:18:41;;;;;;;16.67;11.67;;;;;;;1.31;92.62;100878.98;1743169;81;21598;-64
2020/12/02 00:21:09;;;;;;;18.23;12.90;;;;;;;1.26;92.56;100882.11;1730713;82;22481;-61
2020/12/02 00:23:36;;;;;;;15.67;11.50;;;;;;;1.25;92.69;100883.59;1730485;82;21192;-63
2020/12/02 00:26:06;;;;;;;12.47;8.50;;;;;;;1.25;92.69;100881.77;1732046;81;21669;-64
2020/12/02 00:28:36;;;;;;;16.15;11.45;;;;;;;1.29;92.66;100885.78;1676313;85;21188;-67
2020/12/02 00:31:04;;;;;;;17.52;12.40;;;;;;;1.28;92.55;100885.45;1710485;82;21184;-65
2020/12/02 00:33:31;;;;;;;14.13;9.03;;;;;;;1.31;92.57;100881.63;1731361;82;22229;-68
2020/12/02 00:36:00;;;;;;;21.05;12.55;;;;;;;1.29;92.49;100880.98;1731686;82;22217;-68
2020/12/02 00:38:28;;;;;;;13.32;9.25;;;;;;;1.29;92.41;100880.48;1730392;82;21633;-67
2020/12/02 00:40:56;;;;;;;17.27;10.50;;;;;;;1.32;92.44;100887.27;1730560;82;21211;-66
2020/12/02 00:43:27;;;;;;;16.05;11.08;;;;;;;1.32;92.38;100880.64;1741229;81;21168;-65
2020/12/02 00:45:58;;;;;;;21.57;13.75;;;;;;;1.34;92.29;100878.67;1732993;81;21374;-63
2020/12/02 00:48:30;;;;;;;20.40;12.15;;;;;;;1.29;92.13;100877.00;1729691;81;21658;-65
2020/12/02 00:50:59;;;;;;;16.23;11.15;;;;;;;1.23;92.09;100869.20;1730487;82;21188;-64
2020/12/02 00:53:31;;;;;;;22.22;15.15;;;;;;;1.21;92.21;100878.28;1730527;82;21149;-63
2020/12/02 00:55:59;;;;;;;18.17;12.95;;;;;;;1.18;92.19;100880.77;1730900;82;21565;-63
2020/12/02 00:58:42;;;;;;;18.12;11.83;;;;;;;1.16;92.37;100880.58;1730637;82;21026;-64
2020/12/02 01:01:13;;;;;;;24.75;15.58;;;;;;;1.19;92.48;100881.60;1730535;82;21169;-64
2020/12/02 01:03:41;;;;;;;18.60;13.10;;;;;;;1.19;92.42;100875.81;1733025;81;21132;-64
2020/12/02 01:06:10;;;;;;;24.13;15.13;;;;;;;1.13;92.32;100878.26;1748053;81;21514;-66
2020/12/02 01:08:40;;;;;;;18.15;12.50;;;;;;;1.11;92.35;100873.59;1738032;82;21577;-64
2020/12/02 01:11:27;;;;;;;17.48;12.20;;;;;;;1.12;92.39;100874.77;1730854;82;22054;-64
2020/12/02 01:14:04;;;;;;;21.73;13.47;;;;;;;1.14;92.37;100864.03;1731728;81;21123;-65
2020/12/02 01:16:35;;;;;;;23.90;14.00;;;;;;;1.14;92.38;100870.16;1718828;81;21571;-64
2020/12/02 01:19:06;;;;;;;16.60;10.43;;;;;;;1.13;92.34;100866.33;1738722;81;21049;-64
2020/12/02 01:21:56;;;;;;;19.95;12.63;;;;;;;1.12;92.33;100863.34;1739991;81;21184;-65
2020/12/02 01:24:39;;;;;;;19.77;13.43;;;;;;;1.12;92.35;100865.99;1752438;81;22208;-64
2020/12/02 01:27:21;;;;;;;18.57;11.05;;;;;;;1.14;92.49;100863.53;1732688;82;21654;-64
2020/12/02 01:29:48;;;;;;;20.07;14.30;;;;;;;1.12;92.37;100866.83;1739766;82;21174;-63
2020/12/02 01:32:16;;;;;;;18.83;12.57;;;;;;;1.09;92.31;100870.30;1742643;81;21605;-64
2020/12/02 01:34:49;;;;;;;19.17;11.90;;;;;;;1.09;92.53;100867.16;1750254;81;21162;-64
2020/12/02 01:37:37;;;;;;;24.90;14.03;;;;;;;1.04;92.14;100860.67;1747996;81;21277;-64
2020/12/02 01:40:16;;;;;;;23.10;14.67;;;;;;;0.89;91.29;100863.09;1730968;82;21561;-64
2020/12/02 01:42:48;;;;;;;26.63;16.13;;;;;;;0.76;90.78;100861.38;1730586;82;21631;-63
2020/12/02 01:45:27;;;;;;;21.60;13.08;;;;;;;0.73;90.56;100869.12;1739471;81;21100;-64
2020/12/02 01:48:29;;;;;;;24.97;14.13;;;;;;;0.72;90.30;100863.48;1741118;81;21561;-64
2020/12/02 01:51:18;;;;;;;25.07;16.87;;;;;;;0.72;90.24;100863.48;1739777;82;21218;-64
2020/12/02 01:54:09;;;;;;;30.30;16.60;;;;;;;0.68;90.16;100856.85;1745308;81;21629;-64
2020/12/02 01:56:55;;;;;;;24.23;14.97;;;;;;;0.69;90.36;100857.69;1768528;81;21012;-65
2020/12/02 01:59:50;;;;;;;27.93;18.10;;;;;;;0.72;90.38;100851.58;1759895;81;21585;-64
2020/12/02 02:02:42;;;;;;;18.43;12.40;;;;;;;0.75;90.35;100858.39;1746250;81;21140;-64
2020/12/02 02:05:21;;;;;;;26.90;15.53;;;;;;;0.76;90.14;100850.79;1760773;81;21211;-65
2020/12/02 02:07:50;;;;;;;32.87;15.73;;;;;;;0.68;89.94;100852.88;1760164;81;21593;-64
2020/12/02 02:10:23;;;;;;;27.50;14.73;;;;;;;0.68;90.10;100848.91;1739999;81;21160;-64
2020/12/02 02:13:10;;;;;;;23.38;14.13;;;;;;;0.66;90.18;100853.55;1749286;81;21150;-64
2020/12/02 02:15:49;;;;;;;22.43;15.03;;;;;;;0.54;89.94;100856.60;1768449;81;21135;-64
2020/12/02 02:18:22;;;;;;;24.37;13.53;;;;;;;0.53;90.09;100854.45;1750684;81;21394;-64
2020/12/02 02:21:00;;;;;;;22.47;11.57;;;;;;;0.46;90.17;100858.72;1731805;82;21737;-63
2020/12/02 02:23:27;;;;;;;24.13;15.87;;;;;;;0.40;90.17;100846.94;1724661;83;21597;-64
2020/12/02 02:26:16;;;;;;;20.30;12.67;;;;;;;0.38;90.21;100849.42;1724512;82;21578;-63
2020/12/02 02:29:04;;;;;;;25.37;13.10;;;;;;;0.38;90.51;100855.51;1726840;82;21599;-64
2020/12/02 02:31:37;;;;;;;20.63;14.50;;;;;;;0.37;90.52;100853.87;1738464;82;21135;-63
2020/12/02 02:34:05;;;;;;;22.85;13.50;;;;;;;0.39;90.56;100855.86;1743674;81;28471;-64
2020/12/02 02:36:33;;;;;;;22.30;15.43;;;;;;;0.37;90.58;100851.72;1733086;82;21006;-63
2020/12/02 02:39:00;;;;;;;26.17;14.70;;;;;;;0.33;90.34;100856.98;1747323;82;21159;-62
2020/12/02 02:41:28;;;;;;;20.17;13.67;;;;;;;0.35;90.49;100860.29;1747425;81;21585;-63
2020/12/02 02:43:56;;;;;;;21.03;11.77;;;;;;;0.34;90.39;100864.75;1724692;82;22801;-64
2020/12/02 02:46:24;;;;;;;17.70;11.63;;;;;;;0.37;90.41;100862.30;1687493;83;21157;-64
2020/12/02 02:48:51;;;;;;;24.20;15.47;;;;;;;0.38;90.34;100861.32;1724479;83;21642;-63
2020/12/02 02:51:19;;;;;;;21.90;13.13;;;;;;;0.39;90.27;100858.98;1738066;82;21159;-63
2020/12/02 02:53:48;;;;;;;22.20;13.03;;;;;;;0.41;90.08;100864.97;1747380;81;21123;-63
2020/12/02 02:56:16;;;;;;;25.77;16.63;;;;;;;0.32;89.79;100866.73;1737325;81;21441;-63
2020/12/02 02:58:43;;;;;;;19.87;11.77;;;;;;;0.32;90.02;100863.26;1728764;82;21584;-63
2020/12/02 03:01:12;;;;;;;23.90;12.10;;;;;;;0.31;90.03;100870.85;1740420;81;21015;-63
2020/12/02 03:03:39;;;;;;;22.57;13.70;;;;;;;0.21;90.04;100866.98;1737081;82;21642;-63
2020/12/02 03:06:08;;;;;;;25.07;14.37;;;;;;;0.12;90.30;100877.16;1731577;82;21569;-64
2020/12/02 03:08:36;;;;;;;28.23;13.60;;;;;;;0.10;90.52;100872.99;1704071;83;21557;-63
2020/12/02 03:11:05;;;;;;;25.93;16.57;;;;;;;-0.01;90.93;100871.44;1746694;82;21202;-63
2020/12/02 03:13:41;;;;;;;20.03;13.23;;;;;;;0.02;91.01;100871.61;1724255;82;21564;-64
2020/12/02 03:16:13;;;;;;;22.53;13.80;;;;;;;0.07;91.31;100870.17;1727669;82;21548;-63
2020/12/02 03:18:41;;;;;;;21.27;14.30;;;;;;;0.05;91.12;100870.81;1754943;81;21130;-64
2020/12/02 03:21:12;;;;;;;24.33;14.87;;;;;;;0.07;91.27;100861.41;1761268;81;21577;-63
2020/12/02 03:23:40;;;;;;;19.67;10.93;;;;;;;0.08;91.29;100862.59;1761027;81;21637;-63
2020/12/02 03:26:10;;;;;;;17.40;10.03;;;;;;;0.12;91.33;100859.14;1735706;81;20991;-63
2020/12/02 03:28:39;;;;;;;21.50;13.50;;;;;;;0.17;91.34;100855.05;1760865;81;21144;-62
2020/12/02 03:31:10;;;;;;;23.17;16.57;;;;;;;0.17;91.22;100858.18;1758505;81;21209;-62
2020/12/02 03:33:38;;;;;;;20.93;12.60;;;;;;;0.13;91.19;100854.19;1713722;82;21211;-63
2020/12/02 03:36:07;;;;;;;19.83;13.80;;;;;;;0.14;91.34;100860.66;1745303;81;21160;-62
2020/12/02 03:38:34;;;;;;;21.87;14.57;;;;;;;0.16;91.26;100858.67;1757946;81;21579;-62
2020/12/02 03:41:02;;;;;;;25.63;13.03;;;;;;;0.14;91.21;100854.53;1735584;81;21126;-63
2020/12/02 03:43:29;;;;;;;28.10;16.17;;;;;;;0.11;91.22;100853.50;1765478;81;21571;-63
2020/12/02 03:45:57;;;;;;;27.17;14.23;;;;;;;0.10;91.40;100855.31;1749542;81;21456;-64
2020/12/02 03:48:26;;;;;;;19.90;12.70;;;;;;;0.10;91.41;100849.19;1760659;81;21145;-63
2020/12/02 03:50:53;;;;;;;26.80;15.70;;;;;;;0.11;91.41;100858.79;1760833;81;21161;-63
2020/12/02 03:53:21;;;;;;;16.47;11.53;;;;;;;0.12;91.36;100855.16;1760900;81;21793;-63
2020/12/02 03:55:49;;;;;;;20.10;12.60;;;;;;;0.15;91.33;100857.49;1725194;82;21601;-64
2020/12/02 03:58:17;;;;;;;23.00;12.77;;;;;;;0.08;91.13;100859.11;1732452;81;21566;-64
2020/12/02 04:00:45;;;;;;;21.83;14.73;;;;;;;0.04;91.19;100860.41;1740874;81;21775;-63
2020/12/02 04:03:13;;;;;;;29.17;16.33;;;;;;;0.07;91.36;100859.59;1732508;82;21637;-63
2020/12/02 04:05:41;;;;;;;28.83;18.03;;;;;;;0.11;91.40;100856.98;1737036;81;21569;-64
2020/12/02 04:08:08;;;;;;;28.57;16.90;;;;;;;0.10;91.44;100863.73;1740705;81;21628;-62
2020/12/02 04:10:36;;;;;;;22.57;13.70;;;;;;;0.17;91.60;100862.16;1736909;81;21567;-63
2020/12/02 04:13:04;;;;;;;21.67;13.40;;;;;;;0.21;91.52;100858.21;1728194;82;21029;-64
2020/12/02 04:15:32;;;;;;;23.00;13.63;;;;;;;0.16;91.32;100861.80;1735944;82;21595;-65
2020/12/02 04:18:00;;;;;;;16.63;9.40;;;;;;;0.18;91.41;100865.14;1756036;81;21186;-62
2020/12/02 04:20:27;;;;;;;19.07;11.17;;;;;;;0.21;91.48;100862.17;1742980;82;21173;-63
2020/12/02 04:22:55;;;;;;;20.97;12.50;;;;;;;0.18;91.38;100864.66;1743455;82;21206;-64
2020/12/02 04:25:25;;;;;;;34.27;18.67;;;;;;;0.18;91.54;100869.11;1741155;81;21141;-64
2020/12/02 04:27:52;;;;;;;19.97;13.50;;;;;;;0.12;91.66;100863.11;1743504;81;21591;-64
2020/12/02 04:30:21;;;;;;;23.47;14.63;;;;;;;0.11;91.79;100865.41;1743342;81;21197;-65
2020/12/02 04:32:49;;;;;;;23.70;14.67;;;;;;;0.09;91.74;100864.26;1742255;81;21602;-66
2020/12/02 04:35:16;;;;;;;21.37;13.87;;;;;;;0.11;91.74;100868.05;1735475;82;21169;-66
2020/12/02 04:37:46;;;;;;;25.10;15.70;;;;;;;0.16;91.80;100860.48;1734243;81;21028;-66
2020/12/02 04:40:23;;;;;;;27.90;15.93;;;;;;;0.23;91.92;100865.02;1732957;82;21125;-67
2020/12/02 04:42:56;;;;;;;24.50;14.33;;;;;;;0.23;91.80;100865.02;1742304;82;21146;-66
2020/12/02 04:45:29;;;;;;;21.97;13.97;;;;;;;0.21;91.80;100858.21;1745336;81;21064;-65
2020/12/02 04:48:00;;;;;;;18.93;11.63;;;;;;;0.14;91.67;100859.83;1732168;82;22340;-65
2020/12/02 04:50:28;;;;;;;22.07;12.33;;;;;;;0.08;91.85;100857.30;1742372;81;21078;-66
2020/12/02 04:53:10;;;;;;;23.67;14.40;;;;;;;0.06;91.88;100861.89;1743161;81;21134;-66
2020/12/02 04:55:41;;;;;;;20.23;11.33;;;;;;;0.04;91.90;100863.05;1739007;81;21107;-67
2020/12/02 04:58:34;;;;;;;18.23;12.13;;;;;;;0.04;92.13;100861.23;1753888;81;21157;-65
2020/12/02 05:01:19;;;;;;;22.82;13.43;;;;;;;0.08;92.10;100863.08;1764013;81;21215;-66
2020/12/02 05:04:02;;;;;;;23.10;14.30;;;;;;;0.05;92.08;100854.94;1745690;81;21578;-65
2020/12/02 05:06:38;;;;;;;21.27;13.10;;;;;;;0.07;92.23;100860.09;1712512;82;21184;-66
2020/12/02 05:09:20;;;;;;;25.97;15.57;;;;;;;0.02;92.37;100863.19;1730456;82;21236;-65
2020/12/02 05:12:13;;;;;;;22.00;12.23;;;;;;;0.00;92.48;100852.75;1730599;82;21161;-67
2020/12/02 05:14:45;;;;;;;20.00;14.60;;;;;;;0.01;92.59;100852.27;1732052;81;21388;-66
2020/12/02 05:17:29;;;;;;;30.73;16.60;;;;;;;0.05;92.57;100850.97;1730476;82;21188;-66
2020/12/02 05:20:17;;;;;;;19.33;11.77;;;;;;;0.11;92.49;100864.91;1726604;82;21615;-65
2020/12/02 05:22:47;;;;;;;20.57;11.50;;;;;;;0.12;92.16;100852.52;1704113;83;21145;-66
2020/12/02 05:25:28;;;;;;;22.90;14.50;;;;;;;0.11;92.00;100862.76;1730413;82;21197;-65
2020/12/02 05:28:27;;;;;;;22.57;16.23;;;;;;;0.02;91.78;100859.72;1736659;82;21582;-64
2020/12/02 05:31:14;;;;;;;23.23;16.20;;;;;;;-0.03;91.78;100854.39;1737079;82;21567;-65
2020/12/02 05:33:42;;;;;;;28.07;14.83;;;;;;;0.00;91.92;100863.33;1730916;82;21146;-67
2020/12/02 05:36:23;;;;;;;21.83;13.37;;;;;;;-0.02;91.86;100871.93;1727054;82;21660;-65
2020/12/02 05:39:06;;;;;;;32.17;17.97;;;;;;;-0.05;91.97;100868.77;1724914;82;21578;-65
2020/12/02 05:41:35;;;;;;;22.43;12.50;;;;;;;-0.11;91.98;100876.81;1704274;83;21399;-67
2020/12/02 05:44:17;;;;;;;20.60;14.93;;;;;;;-0.08;92.27;100871.70;1724486;83;21551;-67
2020/12/02 05:46:49;;;;;;;29.30;17.93;;;;;;;-0.07;92.37;100868.08;1695458;84;21137;-65
2020/12/02 05:49:30;;;;;;;29.07;17.17;;;;;;;-0.10;92.36;100873.20;1675871;84;21134;-65
2020/12/02 05:51:58;;;;;;;25.20;15.07;;;;;;;-0.08;92.42;100876.50;1703586;82;21388;-65
2020/12/02 05:54:26;;;;;;;24.23;12.87;;;;;;;-0.06;92.46;100875.87;1739736;82;22125;-66
2020/12/02 05:56:57;;;;;;;26.80;16.23;;;;;;;-0.06;92.52;100870.58;1703964;83;21180;-66
2020/12/02 05:59:24;;;;;;;34.70;18.20;;;;;;;-0.06;92.57;100875.03;1704467;83;21061;-71
2020/12/02 06:01:56;;;;;;;25.33;16.43;;;;;;;-0.08;92.39;100880.95;1724954;82;22180;-66
2020/12/02 06:04:24;;;;;;;22.40;13.03;;;;;;;-0.04;92.50;100879.66;1704734;83;21607;-66
2020/12/02 06:06:56;;;;;;;19.50;13.23;;;;;;;-0.01;92.44;100883.34;1724558;82;21209;-65
2020/12/02 06:09:40;;;;;;;23.80;11.87;;;;;;;0.03;92.41;100885.19;1735681;82;21149;-65
2020/12/02 06:12:21;;;;;;;27.10;16.93;;;;;;;0.05;92.28;100881.91;1726598;82;21115;-66
2020/12/02 06:14:50;;;;;;;24.67;16.42;;;;;;;-0.03;92.11;100891.91;1737261;82;21563;-68
2020/12/02 06:17:26;;;;;;;26.97;15.37;;;;;;;0.00;92.35;100895.07;1737000;82;21230;-65
2020/12/02 06:19:53;;;;;;;32.03;16.73;;;;;;;-0.01;92.14;100893.44;1753655;81;21381;-67
2020/12/02 06:22:50;;;;;;;27.87;17.77;;;;;;;-0.06;92.11;100891.73;1749702;81;21192;-66
2020/12/02 06:25:42;;;;;;;24.87;15.80;;;;;;;-0.05;92.22;100894.69;1739998;81;21164;-67
2020/12/02 06:28:10;;;;;;;23.27;16.27;;;;;;;0.03;92.40;100891.80;1726509;83;21190;-66
2020/12/02 06:30:38;;;;;;;26.23;15.83;;;;;;;0.06;92.27;100892.80;1736802;82;21569;-66
2020/12/02 06:33:20;;;;;;;22.23;14.20;;;;;;;0.07;92.14;100891.83;1749489;81;22177;-67
2020/12/02 06:35:50;;;;;;;21.70;13.60;;;;;;;0.11;92.18;100893.17;1768494;81;21606;-67
2020/12/02 06:38:28;;;;;;;26.57;18.23;;;;;;;0.06;91.76;100895.45;1720629;81;21142;-66
2020/12/02 06:41:04;;;;;;;22.50;12.63;;;;;;;0.01;91.87;100891.94;1760740;81;21130;-67
2020/12/02 06:43:34;;;;;;;32.10;19.43;;;;;;;0.01;91.87;100893.26;1762401;81;21130;-67
2020/12/02 06:46:03;;;;;;;35.43;22.13;;;;;;;0.00;91.84;100894.27;1760839;81;21259;-67
2020/12/02 06:48:37;;;;;;;29.30;17.03;;;;;;;0.06;91.96;100899.41;1768397;81;21094;-66
2020/12/02 06:51:10;;;;;;;33.50;21.57;;;;;;;0.08;91.89;100893.00;1756365;81;21148;-67
2020/12/02 06:53:38;;;;;;;40.43;23.83;;;;;;;0.06;91.78;100896.28;1736001;82;21614;-66
2020/12/02 06:56:06;;;;;;;37.63;24.47;;;;;;;0.08;91.85;100902.75;1732443;82;21125;-67
2020/12/02 06:58:33;;;;;;;36.43;20.07;;;;;;;0.13;91.95;100907.09;1732454;82;21211;-66
2020/12/02 07:01:04;;;;;;;35.03;22.83;;;;;;;0.16;91.85;100904.13;1735506;81;21102;-67
2020/12/02 07:03:41;;;;;;;29.63;19.33;;;;;;;0.12;91.68;100903.61;1768182;81;21567;-67
2020/12/02 07:06:30;;;;;;;39.23;22.40;;;;;;;0.09;91.71;100901.28;1759141;81;21189;-67
2020/12/02 07:09:10;;;;;;;32.90;20.33;;;;;;;0.08;91.86;100896.97;1739960;82;21758;-68
2020/12/02 07:11:42;;;;;;;31.17;18.50;;;;;;;0.12;91.99;100894.36;1739830;82;21214;-67
2020/12/02 07:14:36;;;;;;;38.63;24.27;;;;;;;0.21;92.50;100896.08;1738179;82;22004;-66
2020/12/02 07:17:07;;;;;;;24.02;14.13;;;;;;;0.25;92.43;100896.11;1752835;81;21618;-66
2020/12/02 07:19:39;;;;;;;35.17;18.37;;;;;;;0.19;92.04;100895.39;1760791;81;21105;-67
2020/12/02 07:22:18;;;;;;;22.13;14.27;;;;;;;0.17;92.07;100898.70;1737746;81;21166;-67
2020/12/02 07:24:51;;;;;;;32.33;17.67;;;;;;;0.19;92.04;100902.52;1736322;82;21206;-66
2020/12/02 07:27:21;;;;;;;24.60;13.18;;;;;;;0.19;91.95;100899.88;1744777;81;21166;-66
2020/12/02 07:30:02;;;;;;;25.10;16.33;;;;;;;0.23;91.87;100901.23;1753041;81;21098;-66
2020/12/02 07:32:30;;;;;;;31.97;19.50;;;;;;;0.25;91.85;100896.59;1736915;82;21055;-67
2020/12/02 07:35:03;;;;;;;28.00;20.27;;;;;;;0.34;92.14;100899.15;1726682;83;21195;-66
2020/12/02 07:37:31;;;;;;;34.58;21.02;;;;;;;0.33;91.71;100900.64;1741160;81;21423;-67
2020/12/02 07:40:01;;;;;;;27.73;18.80;;;;;;;0.34;91.71;100902.28;1730929;81;21141;-66
2020/12/02 07:42:33;;;;;;;38.77;25.90;;;;;;;0.35;91.73;100898.17;1759434;81;21128;-66
2020/12/02 07:45:15;;;;;;;43.98;22.87;;;;;;;0.36;91.62;100901.65;1760954;81;21152;-66
2020/12/02 07:47:53;;;;;;;37.47;24.87;;;;;;;0.35;91.56;100902.63;1757640;81;21184;-68
2020/12/02 07:50:34;;;;;;;30.10;18.27;;;;;;;0.41;91.76;100898.88;1734266;81;22633;-66
2020/12/02 07:53:16;;;;;;;33.10;18.13;;;;;;;0.47;91.50;100905.38;1710516;83;21613;-66
2020/12/02 07:55:47;;;;;;;50.90;22.63;;;;;;;0.45;91.27;100902.05;1709183;81;21257;-67
2020/12/02 07:58:27;;;;;;;36.53;21.20;;;;;;;0.46;91.21;100910.81;1739797;82;21045;-67
2020/12/02 08:00:55;;;;;;;35.87;22.83;;;;;;;0.47;91.16;100907.19;1717939;81;21188;-69
2020/12/02 08:03:37;;;;;;;36.73;20.07;;;;;;;0.50;91.20;100905.55;1707347;82;21594;-67
2020/12/02 08:06:20;;;;;;;42.33;21.77;;;;;;;0.43;90.83;100902.19;1750069;81;21657;-66
2020/12/02 08:08:48;;;;;;;43.90;24.77;;;;;;;0.36;90.71;100906.45;1725145;81;21015;-67
2020/12/02 08:11:17;;;;;;;28.53;19.93;;;;;;;0.33;90.83;100895.36;1739964;81;21224;-68
2020/12/02 08:13:51;;;;;;;35.73;18.63;;;;;;;0.30;90.83;100899.61;1751383;81;21143;-68
2020/12/02 08:16:29;;;;;;;27.83;17.47;;;;;;;0.27;90.87;100896.80;1738341;81;22274;-68
2020/12/02 08:18:59;;;;;;;36.90;24.50;;;;;;;0.27;90.91;100896.80;1724434;83;21063;-68
2020/12/02 08:21:27;;;;;;;31.10;17.27;;;;;;;0.28;91.09;100901.11;1728884;82;21561;-67
2020/12/02 08:24:21;;;;;;;36.13;23.57;;;;;;;0.35;91.28;100891.55;1735491;82;21172;-67
2020/12/02 08:26:51;;;;;;;31.23;16.07;;;;;;;0.35;91.10;100897.34;1746320;81;21163;-67
2020/12/02 08:29:22;;;;;;;48.87;25.67;;;;;;;0.38;91.13;100886.46;1763802;81;21275;-67
2020/12/02 08:32:07;;;;;;;32.97;18.60;;;;;;;0.36;91.06;100889.25;1753869;81;21661;-67
2020/12/02 08:34:37;;;;;;;32.63;20.20;;;;;;;0.38;91.02;100887.78;1728423;81;21150;-67
2020/12/02 08:37:23;;;;;;;35.90;21.87;;;;;;;0.33;90.92;100888.25;1763764;80;21547;-67
2020/12/02 08:39:55;;;;;;;32.53;17.00;;;;;;;0.28;90.96;100883.08;1753917;81;21599;-68
2020/12/02 08:42:30;;;;;;;32.50;18.12;;;;;;;0.30;91.17;100883.73;1753930;81;21312;-66
2020/12/02 08:45:09;;;;;;;32.53;19.67;;;;;;;0.31;91.25;100875.66;1701324;84;21201;-66
2020/12/02 08:47:37;;;;;;;42.17;22.97;;;;;;;0.31;91.25;100874.33;1727817;81;21679;-69
2020/12/02 08:50:06;;;;;;;35.47;18.87;;;;;;;0.33;91.32;100874.19;1730449;82;21141;-67
2020/12/02 08:52:34;;;;;;;38.53;21.90;;;;;;;0.37;91.26;100876.37;1730656;82;21156;-66
2020/12/02 08:55:02;;;;;;;41.50;25.33;;;;;;;0.37;91.16;100874.21;1730509;82;21634;-67
2020/12/02 08:57:29;;;;;;;39.20;23.87;;;;;;;0.41;91.38;100875.56;1730601;82;21141;-68
2020/12/02 08:59:59;;;;;;;51.13;30.27;;;;;;;0.47;91.29;100872.78;1732604;81;21017;-68
2020/12/02 09:02:26;;;;;;;39.83;22.63;;;;;;;0.46;91.10;100873.27;1748548;81;21020;-67
2020/12/02 09:04:54;;;;;;;39.07;23.63;;;;;;;0.47;91.16;100875.44;1753770;81;21204;-66
2020/12/02 09:07:22;;;;;;;42.17;23.97;;;;;;;0.44;91.07;100877.39;1763680;81;21395;-68
2020/12/02 09:09:50;;;;;;;33.13;20.03;;;;;;;0.50;91.24;100871.14;1753670;81;21611;-69
2020/12/02 09:12:17;;;;;;;37.07;22.03;;;;;;;0.50;91.07;100871.97;1757705;81;21565;-67
2020/12/02 09:14:46;;;;;;;32.77;21.23;;;;;;;0.53;91.14;100874.30;1760808;81;21562;-67
2020/12/02 09:17:14;;;;;;;40.57;22.57;;;;;;;0.53;91.15;100872.97;1760765;81;21116;-66
2020/12/02 09:19:43;;;;;;;39.47;24.70;;;;;;;0.53;91.10;100872.97;1760821;80;22176;-65
2020/12/02 09:22:11;;;;;;;32.10;19.93;;;;;;;0.52;91.14;100873.98;1743654;81;21626;-67
2020/12/02 09:24:38;;;;;;;33.47;20.30;;;;;;;0.48;90.91;100868.64;1746342;82;21116;-67
2020/12/02 09:27:08;;;;;;;40.10;24.47;;;;;;;0.47;90.99;100867.00;1747318;81;21158;-69
2020/12/02 09:29:36;;;;;;;33.60;18.40;;;;;;;0.47;90.94;100862.20;1740718;82;21129;-67
2020/12/02 09:32:05;;;;;;;32.13;20.17;;;;;;;0.50;91.03;100866.68;1731823;82;21799;-67
2020/12/02 09:34:33;;;;;;;41.83;28.23;;;;;;;0.59;91.28;100866.23;1695455;84;21076;-67
2020/12/02 09:37:01;;;;;;;48.57;30.23;;;;;;;0.66;91.14;100860.66;1695505;84;21192;-68
2020/12/02 09:39:29;;;;;;;45.00;26.43;;;;;;;0.70;90.92;100860.19;1703535;82;21149;-67
2020/12/02 09:42:15;;;;;;;51.70;28.27;;;;;;;0.72;90.82;100854.74;1733017;82;21139;-68
2020/12/02 09:45:10;;;;;;;48.73;28.67;;;;;;;0.71;90.67;100853.91;1718811;83;22374;-66
2020/12/02 09:47:38;;;;;;;41.27;25.73;;;;;;;0.72;90.82;100852.89;1695487;84;21590;-67
2020/12/02 09:50:07;;;;;;;36.27;21.87;;;;;;;0.77;90.72;100853.25;1720639;82;21205;-67
2020/12/02 09:52:47;;;;;;;32.70;21.93;;;;;;;0.77;90.58;100847.13;1735495;82;21607;-67
2020/12/02 09:55:22;;;;;;;39.00;25.27;;;;;;;0.73;90.46;100852.41;1728013;82;21264;-68
2020/12/02 09:57:52;;;;;;;36.33;23.13;;;;;;;0.77;90.64;100852.42;1737143;82;21373;-67
2020/12/02 10:00:22;;;;;;;32.37;20.70;;;;;;;0.85;90.55;100850.67;1730167;82;21664;-68
2020/12/02 10:03:07;;;;;;;32.07;23.67;;;;;;;0.85;90.18;100848.52;1724559;82;21161;-67
2020/12/02 10:06:01;;;;;;;28.97;21.60;;;;;;;0.83;90.20;100851.31;1723864;82;21121;-67
2020/12/02 10:08:43;;;;;;;33.37;23.97;;;;;;;0.88;90.33;100850.34;1688079;84;21166;-67
2020/12/02 10:11:40;;;;;;;35.40;24.20;;;;;;;0.94;90.32;100852.85;1732705;82;22131;-68
2020/12/02 10:14:30;;;;;;;30.87;19.90;;;;;;;0.99;90.27;100849.72;1728177;82;21169;-69
2020/12/02 10:17:35;;;;;;;25.90;17.80;;;;;;;1.02;90.21;100845.42;1724472;83;21164;-67
2020/12/02 10:20:43;;;;;;;25.90;17.93;;;;;;;1.00;89.89;100846.09;1718479;82;21215;-67
2020/12/02 10:23:46;;;;;;;28.70;18.97;;;;;;;0.96;89.88;100854.03;1743957;81;21623;-66
2020/12/02 10:26:48;;;;;;;35.20;20.80;;;;;;;0.91;89.72;100854.50;1688802;83;39258;-67
2020/12/02 10:29:40;;;;;;;35.30;21.13;;;;;;;0.92;90.15;100848.20;1708827;84;21334;-66
2020/12/02 10:32:38;;;;;;;28.07;17.93;;;;;;;1.01;90.18;100851.21;1740658;81;21196;-66
2020/12/02 10:35:06;;;;;;;23.20;14.93;;;;;;;1.05;90.00;100851.74;1751228;81;21610;-67
2020/12/02 10:37:40;;;;;;;24.43;17.30;;;;;;;1.07;89.90;100851.07;1761004;81;21148;-68
2020/12/02 10:40:08;;;;;;;;;;;;;;;1.06;89.63;100854.21;1745061;81;21185;-66
2020/12/02 10:43:09;;;;;;;21.33;15.17;;;;;;;0.96;89.56;100849.53;1751204;81;20226;-68
2020/12/02 10:45:37;;;;;;;27.23;16.97;;;;;;;0.91;89.59;100847.89;1770548;81;21172;-67
2020/12/02 10:48:47;;;;;;;23.50;16.53;;;;;;;0.88;89.71;100850.83;1764637;81;21601;-67
2020/12/02 10:51:15;;;;;;;25.33;18.20;;;;;;;0.87;89.82;100848.67;1757229;81;21606;-67
2020/12/02 10:53:43;;;;;;;23.10;16.93;;;;;;;0.86;89.81;100852.83;1738063;82;21356;-68
2020/12/02 10:56:12;;;;;;;28.63;18.33;;;;;;;0.86;89.87;100844.36;1737660;82;21560;-67
2020/12/02 10:58:39;;;;;;;24.33;15.63;;;;;;;0.87;90.05;100855.30;1752993;81;21577;-67
2020/12/02 11:01:07;;;;;;;21.93;14.37;;;;;;;0.86;90.02;100847.53;1756049;81;21144;-67
2020/12/02 11:03:38;;;;;;;19.77;14.80;;;;;;;0.83;89.98;100850.47;1755934;81;21131;-68
2020/12/02 11:06:21;;;;;;;22.03;15.00;;;;;;;0.82;90.14;100850.13;1762196;81;21420;-69
2020/12/02 11:09:16;;;;;;;17.80;13.90;;;;;;;0.85;90.30;100847.19;1757343;81;21176;-65
2020/12/02 11:12:07;;;;;;;22.60;14.80;;;;;;;0.87;90.31;100845.19;1760799;81;21576;-66
2020/12/02 11:14:50;;;;;;;24.27;16.83;;;;;;;0.93;90.36;100839.76;1751401;81;21108;-64
2020/12/02 11:17:54;;;;;;;24.00;14.73;;;;;;;0.90;90.32;100832.98;1694690;81;21137;-67
2020/12/02 11:20:42;;;;;;;18.10;13.62;;;;;;;0.93;90.34;100836.62;1748243;81;22381;-68
2020/12/02 11:23:21;;;;;;;24.90;18.63;;;;;;;0.93;90.35;100834.46;1737643;81;20990;-69
2020/12/02 11:26:27;;;;;;;20.03;12.77;;;;;;;0.87;90.39;100831.46;1738744;81;20958;-68
2020/12/02 11:28:57;;;;;;;16.30;12.27;;;;;;;0.94;90.61;100834.80;1767960;81;21128;-67
2020/12/02 11:32:02;;;;;;;18.77;13.10;;;;;;;1.01;90.60;100827.37;1738607;81;21549;-67
2020/12/02 11:35:03;;;;;;;17.27;12.73;;;;;;;1.01;90.28;100832.67;1744999;81;22134;-70
2020/12/02 11:37:43;;;;;;;20.90;13.23;;;;;;;1.05;90.17;100830.55;1742644;80;21045;-64
2020/12/02 11:40:25;;;;;;;22.17;16.53;;;;;;;1.11;89.86;100835.19;1785389;79;27665;-69
2020/12/02 11:43:10;;;;;;;20.88;15.05;;;;;;;1.06;89.59;100837.48;1783313;80;21088;-65
2020/12/02 11:45:45;;;;;;;17.97;13.87;;;;;;;1.11;89.59;100831.21;1842293;76;22784;-66
2020/12/02 11:48:32;;;;;;;19.43;14.33;;;;;;;1.01;89.53;100832.67;1805586;79;21482;-61
2020/12/02 11:51:24;;;;;;;20.70;14.97;;;;;;;0.92;89.64;100834.12;1760323;80;21369;-65
2020/12/02 11:54:01;;;;;;;18.87;14.70;;;;;;;0.93;89.87;100837.11;1788257;80;21633;-68